CCF7 weather

Public forecast

Using degrees Celsius for public forecast. Weather courtesy of forecast.io.

Closest aviation weather report (METAR) to Alida/Cowan Farm Private Aerodrome

Closest report is Estevan Airport, 46.0 nm (85.3 km) WSW. Retrieved 2020/08/12 18:00 UTC (22 minutes ago):

CYEN 121800Z AUTO 17014G24KT 9SM SCT170 SCT190 29/14 A2976 RMK LTNG DIST NW SLP073 DENSITY ALT 4100FT

Closest aviation forecast (TAF) to Alida/Cowan Farm Private Aerodrome

Closest forecast is Estevan Airport, 46.0 nm (85.3 km) WSW. Retrieved 2020/08/12 18:00 UTC (22 minutes ago):

TAF CYEN 121740Z 1218/1224 13015G25KT P6SM -SHRA BKN040 OVC120 TEMPO 1219/1224 VRB15G30KT 4SM TSRA OVC040CB PROB40 1221/1224 VRB25G40KT 1SM +TSRA FEW015 OVC040CB RMK FCST BASED ON AUTO OBS NXT FCST WILL BE ISSUED AT 131145Z